sensor_id;sensor_type;location;lat;lon;timestamp;temperature;humidity
2929;DHT22;1474;51.460;7.150;2023-02-01T00:01:55;5.50;99.90
2929;DHT22;1474;51.460;7.150;2023-02-01T00:04:21;5.50;99.90
2929;DHT22;1474;51.460;7.150;2023-02-01T00:06:47;5.50;99.90
2929;DHT22;1474;51.460;7.150;2023-02-01T00:09:12;5.60;99.90
2929;DHT22;1474;51.460;7.150;2023-02-01T00:11:38;5.60;99.90
2929;DHT22;1474;51.460;7.150;2023-02-01T00:14:04;5.60;99.90
2929;DHT22;1474;51.460;7.150;2023-02-01T00:16:30;5.60;99.90
2929;DHT22;1474;51.460;7.150;2023-02-01T00:19:05;5.60;99.90
2929;DHT22;1474;51.460;7.150;2023-02-01T00:21:32;5.60;99.90
2929;DHT22;1474;51.460;7.150;2023-02-01T00:23:58;5.60;99.90
2929;DHT22;1474;51.460;7.150;2023-02-01T00:26:29;5.60;99.90
2929;DHT22;1474;51.460;7.150;2023-02-01T00:28:56;5.60;99.90
2929;DHT22;1474;51.460;7.150;2023-02-01T00:31:21;5.60;99.90
2929;DHT22;1474;51.460;7.150;2023-02-01T00:33:48;5.60;99.90
2929;DHT22;1474;51.460;7.150;2023-02-01T00:36:14;5.60;99.90
2929;DHT22;1474;51.460;7.150;2023-02-01T00:38:39;5.70;99.90
2929;DHT22;1474;51.460;7.150;2023-02-01T00:41:16;5.70;99.90
2929;DHT22;1474;51.460;7.150;2023-02-01T00:43:43;5.70;99.90
2929;DHT22;1474;51.460;7.150;2023-02-01T00:46:09;5.70;99.90
2929;DHT22;1474;51.460;7.150;2023-02-01T00:48:35;5.80;99.90
2929;DHT22;1474;51.460;7.150;2023-02-01T00:51:03;5.80;99.90
2929;DHT22;1474;51.460;7.150;2023-02-01T00:53:30;5.70;99.90
2929;DHT22;1474;51.460;7.150;2023-02-01T00:55:56;5.70;99.90
2929;DHT22;1474;51.460;7.150;2023-02-01T00:58:22;5.70;99.90
2929;DHT22;1474;51.460;7.150;2023-02-01T01:00:49;5.70;99.90
2929;DHT22;1474;51.460;7.150;2023-02-01T01:03:15;5.70;99.90
2929;DHT22;1474;51.460;7.150;2023-02-01T01:05:47;5.70;99.90
2929;DHT22;1474;51.460;7.150;2023-02-01T01:08:14;5.70;99.90
2929;DHT22;1474;51.460;7.150;2023-02-01T01:10:40;5.70;99.90
2929;DHT22;1474;51.460;7.150;2023-02-01T01:13:06;5.70;99.90
2929;DHT22;1474;51.460;7.150;2023-02-01T01:15:39;5.70;99.90
2929;DHT22;1474;51.460;7.150;2023-02-01T01:18:05;5.70;99.90
2929;DHT22;1474;51.460;7.150;2023-02-01T01:20:30;5.70;99.90
2929;DHT22;1474;51.460;7.150;2023-02-01T01:22:56;5.70;99.90
2929;DHT22;1474;51.460;7.150;2023-02-01T01:25:22;5.70;99.90
2929;DHT22;1474;51.460;7.150;2023-02-01T01:27:47;5.80;99.90
2929;DHT22;1474;51.460;7.150;2023-02-01T01:30:13;5.80;99.90
2929;DHT22;1474;51.460;7.150;2023-02-01T01:32:39;5.80;99.90
2929;DHT22;1474;51.460;7.150;2023-02-01T01:35:05;5.80;99.90
2929;DHT22;1474;51.460;7.150;2023-02-01T01:37:32;5.80;99.90
2929;DHT22;1474;51.460;7.150;2023-02-01T01:39:57;5.80;99.90
2929;DHT22;1474;51.460;7.150;2023-02-01T01:42:23;5.80;99.90
2929;DHT22;1474;51.460;7.150;2023-02-01T01:45:03;5.80;99.90
2929;DHT22;1474;51.460;7.150;2023-02-01T01:47:37;5.80;99.90
2929;DHT22;1474;51.460;7.150;2023-02-01T01:50:11;5.90;99.90
2929;DHT22;1474;51.460;7.150;2023-02-01T01:52:37;5.90;99.90
2929;DHT22;1474;51.460;7.150;2023-02-01T01:55:04;5.90;99.90
2929;DHT22;1474;51.460;7.150;2023-02-01T01:57:37;5.80;99.90
2929;DHT22;1474;51.460;7.150;2023-02-01T02:00:15;5.80;99.90
2929;DHT22;1474;51.460;7.150;2023-02-01T02:02:43;5.80;99.90
2929;DHT22;1474;51.460;7.150;2023-02-01T02:05:11;5.80;99.90
2929;DHT22;1474;51.460;7.150;2023-02-01T02:07:40;5.80;99.90
2929;DHT22;1474;51.460;7.150;2023-02-01T02:10:09;5.80;99.90
2929;DHT22;1474;51.460;7.150;2023-02-01T02:12:39;5.80;99.90
2929;DHT22;1474;51.460;7.150;2023-02-01T02:15:09;5.80;99.90
2929;DHT22;1474;51.460;7.150;2023-02-01T02:17:49;5.70;99.90
2929;DHT22;1474;51.460;7.150;2023-02-01T02:26:17;5.70;99.90
2929;DHT22;1474;51.460;7.150;2023-02-01T02:43:32;5.60;99.90
2929;DHT22;1474;51.460;7.150;2023-02-01T02:46:24;5.60;99.90
2929;DHT22;1474;51.460;7.150;2023-02-01T02:49:19;5.60;99.90
2929;DHT22;1474;51.460;7.150;2023-02-01T02:52:16;5.60;99.90
2929;DHT22;1474;51.460;7.150;2023-02-01T02:55:03;5.60;99.90
2929;DHT22;1474;51.460;7.150;2023-02-01T02:57:37;5.60;99.90
2929;DHT22;1474;51.460;7.150;2023-02-01T03:00:28;5.60;99.90
2929;DHT22;1474;51.460;7.150;2023-02-01T03:03:13;5.60;99.90
2929;DHT22;1474;51.460;7.150;2023-02-01T03:05:57;5.50;99.90
2929;DHT22;1474;51.460;7.150;2023-02-01T03:08:28;5.50;99.90
2929;DHT22;1474;51.460;7.150;2023-02-01T03:10:58;5.50;99.90
2929;DHT22;1474;51.460;7.150;2023-02-01T03:14:01;5.50;99.90
2929;DHT22;1474;51.460;7.150;2023-02-01T03:17:04;5.40;99.90
2929;DHT22;1474;51.460;7.150;2023-02-01T03:19:25;5.40;99.90
2929;DHT22;1474;51.460;7.150;2023-02-01T03:22:05;5.40;99.90
2929;DHT22;1474;51.460;7.150;2023-02-01T03:24:40;5.40;99.90
2929;DHT22;1474;51.460;7.150;2023-02-01T03:27:17;5.30;99.90
2929;DHT22;1474;51.460;7.150;2023-02-01T03:32:43;5.30;99.90
2929;DHT22;1474;51.460;7.150;2023-02-01T03:44:20;5.40;99.90
2929;DHT22;1474;51.460;7.150;2023-02-01T03:49:34;5.40;99.90
2929;DHT22;1474;51.460;7.150;2023-02-01T03:52:00;5.40;99.90
2929;DHT22;1474;51.460;7.150;2023-02-01T03:54:27;5.40;99.90
2929;DHT22;1474;51.460;7.150;2023-02-01T03:56:56;5.40;99.90
2929;DHT22;1474;51.460;7.150;2023-02-01T03:59:24;5.50;99.90
2929;DHT22;1474;51.460;7.150;2023-02-01T04:01:49;5.50;99.90
2929;DHT22;1474;51.460;7.150;2023-02-01T04:04:15;5.50;99.90
2929;DHT22;1474;51.460;7.150;2023-02-01T04:06:49;5.50;99.90
2929;DHT22;1474;51.460;7.150;2023-02-01T04:09:15;5.50;99.90
2929;DHT22;1474;51.460;7.150;2023-02-01T04:11:41;5.50;99.90
2929;DHT22;1474;51.460;7.150;2023-02-01T04:14:07;5.50;99.90
2929;DHT22;1474;51.460;7.150;2023-02-01T04:16:33;5.50;99.90
2929;DHT22;1474;51.460;7.150;2023-02-01T04:18:59;5.50;99.90
2929;DHT22;1474;51.460;7.150;2023-02-01T04:21:26;5.50;99.90
2929;DHT22;1474;51.460;7.150;2023-02-01T04:23:52;5.50;99.90
2929;DHT22;1474;51.460;7.150;2023-02-01T04:26:18;5.50;99.90
2929;DHT22;1474;51.460;7.150;2023-02-01T04:28:45;5.50;99.90
2929;DHT22;1474;51.460;7.150;2023-02-01T04:31:13;5.50;99.90
2929;DHT22;1474;51.460;7.150;2023-02-01T04:33:39;5.50;99.90
2929;DHT22;1474;51.460;7.150;2023-02-01T04:36:05;5.50;99.90
2929;DHT22;1474;51.460;7.150;2023-02-01T04:38:30;5.50;99.90
2929;DHT22;1474;51.460;7.150;2023-02-01T04:40:57;5.60;99.90
2929;DHT22;1474;51.460;7.150;2023-02-01T04:43:23;5.50;99.90
2929;DHT22;1474;51.460;7.150;2023-02-01T04:45:49;5.50;99.90
2929;DHT22;1474;51.460;7.150;2023-02-01T04:48:19;5.60;99.90
2929;DHT22;1474;51.460;7.150;2023-02-01T04:50:46;5.50;99.90
2929;DHT22;1474;51.460;7.150;2023-02-01T04:53:14;5.50;99.90
2929;DHT22;1474;51.460;7.150;2023-02-01T04:55:40;5.50;99.90
2929;DHT22;1474;51.460;7.150;2023-02-01T04:58:05;5.50;99.90
2929;DHT22;1474;51.460;7.150;2023-02-01T05:00:31;5.50;99.90
2929;DHT22;1474;51.460;7.150;2023-02-01T05:02:57;5.50;99.90
2929;DHT22;1474;51.460;7.150;2023-02-01T05:05:22;5.60;99.90
2929;DHT22;1474;51.460;7.150;2023-02-01T05:07:48;5.50;99.90
2929;DHT22;1474;51.460;7.150;2023-02-01T05:10:14;5.60;99.90
2929;DHT22;1474;51.460;7.150;2023-02-01T05:12:39;5.60;99.90
2929;DHT22;1474;51.460;7.150;2023-02-01T05:15:23;5.50;99.90
2929;DHT22;1474;51.460;7.150;2023-02-01T05:17:49;5.50;99.90
2929;DHT22;1474;51.460;7.150;2023-02-01T05:20:14;5.40;99.90
2929;DHT22;1474;51.460;7.150;2023-02-01T05:22:41;5.40;99.90
2929;DHT22;1474;51.460;7.150;2023-02-01T05:25:07;5.40;99.90
2929;DHT22;1474;51.460;7.150;2023-02-01T05:27:33;5.40;99.90
2929;DHT22;1474;51.460;7.150;2023-02-01T05:29:58;5.40;99.90
2929;DHT22;1474;51.460;7.150;2023-02-01T05:32:24;5.40;99.90
2929;DHT22;1474;51.460;7.150;2023-02-01T05:34:50;5.40;99.90
2929;DHT22;1474;51.460;7.150;2023-02-01T05:37:15;5.40;99.90
2929;DHT22;1474;51.460;7.150;2023-02-01T05:39:41;5.50;99.90
2929;DHT22;1474;51.460;7.150;2023-02-01T05:42:07;5.40;99.90
2929;DHT22;1474;51.460;7.150;2023-02-01T05:44:32;5.50;99.90
2929;DHT22;1474;51.460;7.150;2023-02-01T05:46:58;5.50;99.90
2929;DHT22;1474;51.460;7.150;2023-02-01T05:49:23;5.50;99.90
2929;DHT22;1474;51.460;7.150;2023-02-01T05:51:49;5.50;99.90
2929;DHT22;1474;51.460;7.150;2023-02-01T05:54:15;5.40;99.90
2929;DHT22;1474;51.460;7.150;2023-02-01T05:56:41;5.40;99.90
2929;DHT22;1474;51.460;7.150;2023-02-01T05:59:06;5.40;99.90
2929;DHT22;1474;51.460;7.150;2023-02-01T06:01:32;5.30;99.90
2929;DHT22;1474;51.460;7.150;2023-02-01T06:03:58;5.30;99.90
2929;DHT22;1474;51.460;7.150;2023-02-01T06:06:23;5.30;99.90
2929;DHT22;1474;51.460;7.150;2023-02-01T06:08:49;5.30;99.90
2929;DHT22;1474;51.460;7.150;2023-02-01T06:11:14;5.30;99.90
2929;DHT22;1474;51.460;7.150;2023-02-01T06:13:40;5.30;99.90
2929;DHT22;1474;51.460;7.150;2023-02-01T06:16:06;5.30;99.90
2929;DHT22;1474;51.460;7.150;2023-02-01T06:18:35;5.30;99.90
2929;DHT22;1474;51.460;7.150;2023-02-01T06:21:01;5.40;99.90
2929;DHT22;1474;51.460;7.150;2023-02-01T06:23:28;5.40;99.90
2929;DHT22;1474;51.460;7.150;2023-02-01T06:26:05;5.40;99.90
2929;DHT22;1474;51.460;7.150;2023-02-01T06:28:32;5.40;99.90
2929;DHT22;1474;51.460;7.150;2023-02-01T06:31:03;5.40;99.90
2929;DHT22;1474;51.460;7.150;2023-02-01T06:33:29;5.40;99.90
2929;DHT22;1474;51.460;7.150;2023-02-01T06:36:03;5.40;99.90
2929;DHT22;1474;51.460;7.150;2023-02-01T06:38:30;5.40;99.90
2929;DHT22;1474;51.460;7.150;2023-02-01T06:40:57;5.50;99.90
2929;DHT22;1474;51.460;7.150;2023-02-01T06:43:24;5.40;99.90
2929;DHT22;1474;51.460;7.150;2023-02-01T06:45:51;5.50;99.90
2929;DHT22;1474;51.460;7.150;2023-02-01T06:48:17;5.50;99.90
2929;DHT22;1474;51.460;7.150;2023-02-01T06:50:43;5.50;99.90
2929;DHT22;1474;51.460;7.150;2023-02-01T06:53:08;5.50;99.90
2929;DHT22;1474;51.460;7.150;2023-02-01T06:55:34;5.50;99.90
2929;DHT22;1474;51.460;7.150;2023-02-01T06:58:00;5.50;99.90
2929;DHT22;1474;51.460;7.150;2023-02-01T07:00:27;5.50;99.90
2929;DHT22;1474;51.460;7.150;2023-02-01T07:02:53;5.50;99.90
2929;DHT22;1474;51.460;7.150;2023-02-01T07:05:19;5.50;99.90
2929;DHT22;1474;51.460;7.150;2023-02-01T07:07:44;5.50;99.90
2929;DHT22;1474;51.460;7.150;2023-02-01T07:10:10;5.50;99.90
2929;DHT22;1474;51.460;7.150;2023-02-01T07:12:36;5.50;99.90
2929;DHT22;1474;51.460;7.150;2023-02-01T07:15:02;5.50;99.90
2929;DHT22;1474;51.460;7.150;2023-02-01T07:17:28;5.60;99.90
2929;DHT22;1474;51.460;7.150;2023-02-01T07:19:55;5.60;99.90
2929;DHT22;1474;51.460;7.150;2023-02-01T07:22:21;5.60;99.90
2929;DHT22;1474;51.460;7.150;2023-02-01T07:24:46;5.60;99.90
2929;DHT22;1474;51.460;7.150;2023-02-01T07:27:12;5.70;99.90
2929;DHT22;1474;51.460;7.150;2023-02-01T07:29:38;5.70;99.90
2929;DHT22;1474;51.460;7.150;2023-02-01T07:32:04;5.70;99.90
2929;DHT22;1474;51.460;7.150;2023-02-01T07:34:30;5.70;99.90
2929;DHT22;1474;51.460;7.150;2023-02-01T07:36:59;5.70;99.90
2929;DHT22;1474;51.460;7.150;2023-02-01T07:39:24;5.70;99.90
2929;DHT22;1474;51.460;7.150;2023-02-01T07:41:53;5.80;99.90
2929;DHT22;1474;51.460;7.150;2023-02-01T07:44:19;5.80;99.90
2929;DHT22;1474;51.460;7.150;2023-02-01T07:46:48;5.70;99.90
2929;DHT22;1474;51.460;7.150;2023-02-01T07:49:13;5.80;99.90
2929;DHT22;1474;51.460;7.150;2023-02-01T07:51:39;5.80;99.90
2929;DHT22;1474;51.460;7.150;2023-02-01T07:54:05;5.70;99.90
2929;DHT22;1474;51.460;7.150;2023-02-01T07:56:30;5.80;99.90
2929;DHT22;1474;51.460;7.150;2023-02-01T07:58:56;5.80;99.90
2929;DHT22;1474;51.460;7.150;2023-02-01T08:01:24;5.80;99.90
2929;DHT22;1474;51.460;7.150;2023-02-01T08:03:52;5.80;99.90
2929;DHT22;1474;51.460;7.150;2023-02-01T08:06:19;5.80;99.90
2929;DHT22;1474;51.460;7.150;2023-02-01T08:08:45;5.80;99.90
2929;DHT22;1474;51.460;7.150;2023-02-01T08:11:12;5.80;99.90
2929;DHT22;1474;51.460;7.150;2023-02-01T08:13:38;5.80;99.90
2929;DHT22;1474;51.460;7.150;2023-02-01T08:16:07;5.80;99.90
2929;DHT22;1474;51.460;7.150;2023-02-01T08:18:34;5.80;99.90
2929;DHT22;1474;51.460;7.150;2023-02-01T08:21:10;5.80;99.90
2929;DHT22;1474;51.460;7.150;2023-02-01T08:23:37;5.80;99.90
2929;DHT22;1474;51.460;7.150;2023-02-01T08:28:48;5.90;99.90
2929;DHT22;1474;51.460;7.150;2023-02-01T08:31:16;5.90;99.90
2929;DHT22;1474;51.460;7.150;2023-02-01T08:33:43;5.80;99.90
2929;DHT22;1474;51.460;7.150;2023-02-01T08:36:10;5.90;99.90
2929;DHT22;1474;51.460;7.150;2023-02-01T08:38:37;5.90;99.90
2929;DHT22;1474;51.460;7.150;2023-02-01T08:41:14;5.90;99.90
2929;DHT22;1474;51.460;7.150;2023-02-01T08:43:40;5.90;99.90
2929;DHT22;1474;51.460;7.150;2023-02-01T08:46:07;6.00;99.90
2929;DHT22;1474;51.460;7.150;2023-02-01T08:48:33;6.00;99.90
2929;DHT22;1474;51.460;7.150;2023-02-01T08:51:02;6.00;99.90
2929;DHT22;1474;51.460;7.150;2023-02-01T08:53:28;5.90;99.90
2929;DHT22;1474;51.460;7.150;2023-02-01T08:55:54;6.00;99.90
2929;DHT22;1474;51.460;7.150;2023-02-01T08:58:19;6.00;99.90
2929;DHT22;1474;51.460;7.150;2023-02-01T09:00:47;6.00;99.90
2929;DHT22;1474;51.460;7.150;2023-02-01T09:03:14;6.10;99.90
2929;DHT22;1474;51.460;7.150;2023-02-01T09:05:40;6.10;99.90
2929;DHT22;1474;51.460;7.150;2023-02-01T09:08:07;6.00;99.90
2929;DHT22;1474;51.460;7.150;2023-02-01T09:10:33;6.00;99.90
2929;DHT22;1474;51.460;7.150;2023-02-01T09:12:59;6.00;99.90
2929;DHT22;1474;51.460;7.150;2023-02-01T09:15:24;6.00;99.90
2929;DHT22;1474;51.460;7.150;2023-02-01T09:17:50;6.00;99.90
2929;DHT22;1474;51.460;7.150;2023-02-01T09:20:16;6.10;99.90
2929;DHT22;1474;51.460;7.150;2023-02-01T09:22:41;6.10;99.90
2929;DHT22;1474;51.460;7.150;2023-02-01T09:25:08;6.10;99.90
2929;DHT22;1474;51.460;7.150;2023-02-01T09:27:34;6.20;99.90
2929;DHT22;1474;51.460;7.150;2023-02-01T09:30:00;6.30;99.90
2929;DHT22;1474;51.460;7.150;2023-02-01T09:32:26;6.30;99.90
2929;DHT22;1474;51.460;7.150;2023-02-01T09:34:52;6.30;99.90
2929;DHT22;1474;51.460;7.150;2023-02-01T09:37:19;6.30;99.90
2929;DHT22;1474;51.460;7.150;2023-02-01T09:39:44;6.30;99.90
2929;DHT22;1474;51.460;7.150;2023-02-01T09:42:46;6.30;99.90
2929;DHT22;1474;51.460;7.150;2023-02-01T09:45:21;6.30;99.90
2929;DHT22;1474;51.460;7.150;2023-02-01T09:47:53;6.40;99.90
2929;DHT22;1474;51.460;7.150;2023-02-01T09:50:43;6.40;99.90
2929;DHT22;1474;51.460;7.150;2023-02-01T09:53:24;6.50;99.90
2929;DHT22;1474;51.460;7.150;2023-02-01T09:55:54;6.50;99.90
2929;DHT22;1474;51.460;7.150;2023-02-01T09:58:34;6.50;99.90
2929;DHT22;1474;51.460;7.150;2023-02-01T10:01:02;6.50;99.90
2929;DHT22;1474;51.460;7.150;2023-02-01T10:03:34;6.60;99.90
2929;DHT22;1474;51.460;7.150;2023-02-01T10:11:39;6.70;99.90
2929;DHT22;1474;51.460;7.150;2023-02-01T10:20:30;6.70;99.90
2929;DHT22;1474;51.460;7.150;2023-02-01T10:25:54;6.80;99.90
2929;DHT22;1474;51.460;7.150;2023-02-01T10:28:22;6.80;99.90
2929;DHT22;1474;51.460;7.150;2023-02-01T10:30:54;6.80;99.90
2929;DHT22;1474;51.460;7.150;2023-02-01T10:33:39;6.80;99.90
2929;DHT22;1474;51.460;7.150;2023-02-01T10:38:43;6.80;99.90
2929;DHT22;1474;51.460;7.150;2023-02-01T10:41:17;6.70;99.90
2929;DHT22;1474;51.460;7.150;2023-02-01T10:43:45;6.70;99.90
2929;DHT22;1474;51.460;7.150;2023-02-01T10:46:11;6.70;99.90
2929;DHT22;1474;51.460;7.150;2023-02-01T10:48:37;6.70;99.90
2929;DHT22;1474;51.460;7.150;2023-02-01T10:51:15;6.80;99.90
2929;DHT22;1474;51.460;7.150;2023-02-01T10:56:25;6.70;99.90
2929;DHT22;1474;51.460;7.150;2023-02-01T10:59:00;6.70;99.90
2929;DHT22;1474;51.460;7.150;2023-02-01T11:01:40;6.70;99.90
2929;DHT22;1474;51.460;7.150;2023-02-01T11:04:11;6.70;99.90
2929;DHT22;1474;51.460;7.150;2023-02-01T11:06:40;6.80;99.90
2929;DHT22;1474;51.460;7.150;2023-02-01T11:16:57;6.90;99.90
2929;DHT22;1474;51.460;7.150;2023-02-01T11:19:23;6.80;99.90
2929;DHT22;1474;51.460;7.150;2023-02-01T11:21:54;6.80;99.90
2929;DHT22;1474;51.460;7.150;2023-02-01T11:24:27;6.80;99.90
2929;DHT22;1474;51.460;7.150;2023-02-01T11:26:56;6.90;99.90
2929;DHT22;1474;51.460;7.150;2023-02-01T11:29:24;7.00;99.90
2929;DHT22;1474;51.460;7.150;2023-02-01T11:31:58;7.00;99.90
2929;DHT22;1474;51.460;7.150;2023-02-01T11:34:40;7.00;99.90
2929;DHT22;1474;51.460;7.150;2023-02-01T11:37:20;7.00;99.90
2929;DHT22;1474;51.460;7.150;2023-02-01T11:40:01;7.00;99.90
2929;DHT22;1474;51.460;7.150;2023-02-01T11:42:29;7.00;99.90
2929;DHT22;1474;51.460;7.150;2023-02-01T11:45:18;7.10;99.90
2929;DHT22;1474;51.460;7.150;2023-02-01T11:47:45;7.10;99.90
2929;DHT22;1474;51.460;7.150;2023-02-01T11:50:17;7.10;99.90
2929;DHT22;1474;51.460;7.150;2023-02-01T11:53:13;7.10;99.90
2929;DHT22;1474;51.460;7.150;2023-02-01T11:55:59;7.00;99.90
2929;DHT22;1474;51.460;7.150;2023-02-01T12:01:29;6.90;99.90
2929;DHT22;1474;51.460;7.150;2023-02-01T12:07:19;6.80;99.90
2929;DHT22;1474;51.460;7.150;2023-02-01T12:18:18;6.50;99.90
2929;DHT22;1474;51.460;7.150;2023-02-01T12:21:16;6.50;99.90
2929;DHT22;1474;51.460;7.150;2023-02-01T12:24:22;6.40;99.90
2929;DHT22;1474;51.460;7.150;2023-02-01T12:27:06;6.40;99.90
2929;DHT22;1474;51.460;7.150;2023-02-01T12:32:24;6.40;99.90
2929;DHT22;1474;51.460;7.150;2023-02-01T12:37:59;6.40;99.90
2929;DHT22;1474;51.460;7.150;2023-02-01T12:40:50;6.40;99.90
2929;DHT22;1474;51.460;7.150;2023-02-01T12:44:10;6.50;99.90
2929;DHT22;1474;51.460;7.150;2023-02-01T12:46:16;6.50;99.90
2929;DHT22;1474;51.460;7.150;2023-02-01T12:51:17;6.50;99.90
2929;DHT22;1474;51.460;7.150;2023-02-01T12:56:13;6.60;99.90
2929;DHT22;1474;51.460;7.150;2023-02-01T12:58:46;6.60;99.90
2929;DHT22;1474;51.460;7.150;2023-02-01T13:01:30;6.60;99.90
2929;DHT22;1474;51.460;7.150;2023-02-01T13:11:28;6.70;99.90
2929;DHT22;1474;51.460;7.150;2023-02-01T13:16:44;6.70;99.90
2929;DHT22;1474;51.460;7.150;2023-02-01T13:19:17;6.70;99.90
2929;DHT22;1474;51.460;7.150;2023-02-01T13:21:51;6.70;99.90
2929;DHT22;1474;51.460;7.150;2023-02-01T13:24:26;6.70;99.90
2929;DHT22;1474;51.460;7.150;2023-02-01T13:26:54;6.80;99.90
2929;DHT22;1474;51.460;7.150;2023-02-01T13:29:21;6.80;99.90
2929;DHT22;1474;51.460;7.150;2023-02-01T13:32:25;6.80;99.90
2929;DHT22;1474;51.460;7.150;2023-02-01T13:42:45;6.80;99.90
2929;DHT22;1474;51.460;7.150;2023-02-01T13:45:19;6.80;99.90
2929;DHT22;1474;51.460;7.150;2023-02-01T13:47:47;6.90;99.90
2929;DHT22;1474;51.460;7.150;2023-02-01T13:50:22;6.90;99.90
2929;DHT22;1474;51.460;7.150;2023-02-01T13:55:57;7.00;99.90
2929;DHT22;1474;51.460;7.150;2023-02-01T13:58:35;7.00;99.90
2929;DHT22;1474;51.460;7.150;2023-02-01T14:03:59;7.10;99.90
2929;DHT22;1474;51.460;7.150;2023-02-01T14:11:37;7.10;99.90
2929;DHT22;1474;51.460;7.150;2023-02-01T14:21:53;7.10;99.90
2929;DHT22;1474;51.460;7.150;2023-02-01T14:24:32;7.00;99.90
2929;DHT22;1474;51.460;7.150;2023-02-01T14:27:00;7.10;99.90
2929;DHT22;1474;51.460;7.150;2023-02-01T14:29:34;7.10;99.90
2929;DHT22;1474;51.460;7.150;2023-02-01T14:32:16;7.10;99.90
2929;DHT22;1474;51.460;7.150;2023-02-01T14:34:49;7.10;99.90
2929;DHT22;1474;51.460;7.150;2023-02-01T14:44:43;7.10;99.90
2929;DHT22;1474;51.460;7.150;2023-02-01T14:55:55;7.20;99.90
2929;DHT22;1474;51.460;7.150;2023-02-01T15:00:57;7.20;99.90
2929;DHT22;1474;51.460;7.150;2023-02-01T15:03:47;7.20;99.90
2929;DHT22;1474;51.460;7.150;2023-02-01T15:08:54;7.20;99.90
2929;DHT22;1474;51.460;7.150;2023-02-01T15:11:20;7.20;99.90
2929;DHT22;1474;51.460;7.150;2023-02-01T15:13:50;7.30;99.90
2929;DHT22;1474;51.460;7.150;2023-02-01T15:16:19;7.30;99.90
2929;DHT22;1474;51.460;7.150;2023-02-01T15:18:44;7.30;99.90
2929;DHT22;1474;51.460;7.150;2023-02-01T15:21:22;7.30;99.90
2929;DHT22;1474;51.460;7.150;2023-02-01T15:23:48;7.30;99.90
2929;DHT22;1474;51.460;7.150;2023-02-01T15:26:28;7.30;99.90
2929;DHT22;1474;51.460;7.150;2023-02-01T15:28:57;7.30;99.90
2929;DHT22;1474;51.460;7.150;2023-02-01T15:31:58;7.30;99.90
2929;DHT22;1474;51.460;7.150;2023-02-01T15:34:44;7.30;99.90
2929;DHT22;1474;51.460;7.150;2023-02-01T15:37:15;7.40;99.90
2929;DHT22;1474;51.460;7.150;2023-02-01T15:42:50;7.30;99.90
2929;DHT22;1474;51.460;7.150;2023-02-01T15:45:20;7.40;99.90
2929;DHT22;1474;51.460;7.150;2023-02-01T15:47:50;7.30;99.90
2929;DHT22;1474;51.460;7.150;2023-02-01T15:50:19;7.30;99.90
2929;DHT22;1474;51.460;7.150;2023-02-01T15:52:47;7.40;99.90
2929;DHT22;1474;51.460;7.150;2023-02-01T15:57:57;7.40;99.90
2929;DHT22;1474;51.460;7.150;2023-02-01T16:00:30;7.40;99.90
2929;DHT22;1474;51.460;7.150;2023-02-01T16:03:03;7.40;99.90
2929;DHT22;1474;51.460;7.150;2023-02-01T16:05:37;7.40;99.90
2929;DHT22;1474;51.460;7.150;2023-02-01T16:08:21;7.40;99.90
2929;DHT22;1474;51.460;7.150;2023-02-01T16:10:48;7.40;99.90
2929;DHT22;1474;51.460;7.150;2023-02-01T16:13:16;7.40;99.90
2929;DHT22;1474;51.460;7.150;2023-02-01T16:15:42;7.40;99.90
2929;DHT22;1474;51.460;7.150;2023-02-01T16:18:09;7.40;99.90
2929;DHT22;1474;51.460;7.150;2023-02-01T16:20:37;7.40;99.90
2929;DHT22;1474;51.460;7.150;2023-02-01T16:23:03;7.40;99.90
2929;DHT22;1474;51.460;7.150;2023-02-01T16:25:29;7.30;99.90
2929;DHT22;1474;51.460;7.150;2023-02-01T16:27:55;7.30;99.90
2929;DHT22;1474;51.460;7.150;2023-02-01T16:30:20;7.30;99.90
2929;DHT22;1474;51.460;7.150;2023-02-01T16:32:59;7.30;99.90
2929;DHT22;1474;51.460;7.150;2023-02-01T16:35:28;7.20;99.90
2929;DHT22;1474;51.460;7.150;2023-02-01T16:37:55;7.10;99.90
2929;DHT22;1474;51.460;7.150;2023-02-01T16:40:21;7.00;99.90
2929;DHT22;1474;51.460;7.150;2023-02-01T16:42:51;6.90;99.90
2929;DHT22;1474;51.460;7.150;2023-02-01T16:45:18;6.90;99.90
2929;DHT22;1474;51.460;7.150;2023-02-01T16:47:54;6.80;99.90
2929;DHT22;1474;51.460;7.150;2023-02-01T16:50:25;6.70;99.90
2929;DHT22;1474;51.460;7.150;2023-02-01T16:52:53;6.80;99.90
2929;DHT22;1474;51.460;7.150;2023-02-01T16:55:20;6.80;99.90
2929;DHT22;1474;51.460;7.150;2023-02-01T16:57:47;6.80;99.90
2929;DHT22;1474;51.460;7.150;2023-02-01T17:00:13;6.80;99.90
2929;DHT22;1474;51.460;7.150;2023-02-01T17:02:41;6.80;99.90
2929;DHT22;1474;51.460;7.150;2023-02-01T17:05:08;6.70;99.90
2929;DHT22;1474;51.460;7.150;2023-02-01T17:07:35;6.80;99.90
2929;DHT22;1474;51.460;7.150;2023-02-01T17:10:01;6.80;99.90
2929;DHT22;1474;51.460;7.150;2023-02-01T17:12:30;6.80;99.90
2929;DHT22;1474;51.460;7.150;2023-02-01T17:14:56;6.80;99.90
2929;DHT22;1474;51.460;7.150;2023-02-01T17:17:23;6.90;99.90
2929;DHT22;1474;51.460;7.150;2023-02-01T17:19:51;6.90;99.90
2929;DHT22;1474;51.460;7.150;2023-02-01T17:22:22;6.90;99.90
2929;DHT22;1474;51.460;7.150;2023-02-01T17:24:48;6.90;99.90
2929;DHT22;1474;51.460;7.150;2023-02-01T17:27:14;6.90;99.90
2929;DHT22;1474;51.460;7.150;2023-02-01T17:29:40;7.00;99.90
2929;DHT22;1474;51.460;7.150;2023-02-01T17:32:20;7.00;99.90
2929;DHT22;1474;51.460;7.150;2023-02-01T17:34:47;6.90;99.90
2929;DHT22;1474;51.460;7.150;2023-02-01T17:37:23;6.90;99.90
2929;DHT22;1474;51.460;7.150;2023-02-01T17:39:49;6.80;99.90
2929;DHT22;1474;51.460;7.150;2023-02-01T17:42:26;6.80;99.90
2929;DHT22;1474;51.460;7.150;2023-02-01T17:44:56;6.70;99.90
2929;DHT22;1474;51.460;7.150;2023-02-01T17:47:22;6.80;99.90
2929;DHT22;1474;51.460;7.150;2023-02-01T17:49:48;6.80;99.90
2929;DHT22;1474;51.460;7.150;2023-02-01T17:52:21;6.90;99.90
2929;DHT22;1474;51.460;7.150;2023-02-01T17:54:47;6.90;99.90
2929;DHT22;1474;51.460;7.150;2023-02-01T17:57:15;6.90;99.90
2929;DHT22;1474;51.460;7.150;2023-02-01T17:59:41;7.00;99.90
2929;DHT22;1474;51.460;7.150;2023-02-01T18:02:33;7.00;99.90
2929;DHT22;1474;51.460;7.150;2023-02-01T18:04:58;7.00;99.90
2929;DHT22;1474;51.460;7.150;2023-02-01T18:07:25;7.00;99.90
2929;DHT22;1474;51.460;7.150;2023-02-01T18:09:50;7.10;99.90
2929;DHT22;1474;51.460;7.150;2023-02-01T18:12:21;7.10;99.90
2929;DHT22;1474;51.460;7.150;2023-02-01T18:14:47;7.00;99.90
2929;DHT22;1474;51.460;7.150;2023-02-01T18:17:13;7.10;99.90
2929;DHT22;1474;51.460;7.150;2023-02-01T18:19:39;7.10;99.90
2929;DHT22;1474;51.460;7.150;2023-02-01T18:22:05;7.00;99.90
2929;DHT22;1474;51.460;7.150;2023-02-01T18:24:31;7.00;99.90
2929;DHT22;1474;51.460;7.150;2023-02-01T18:26:59;7.00;99.90
2929;DHT22;1474;51.460;7.150;2023-02-01T18:29:25;7.00;99.90
2929;DHT22;1474;51.460;7.150;2023-02-01T18:31:51;7.00;99.90
2929;DHT22;1474;51.460;7.150;2023-02-01T18:34:16;7.00;99.90
2929;DHT22;1474;51.460;7.150;2023-02-01T18:36:47;7.00;99.90
2929;DHT22;1474;51.460;7.150;2023-02-01T18:39:13;7.00;99.90
2929;DHT22;1474;51.460;7.150;2023-02-01T18:41:39;7.00;99.90
2929;DHT22;1474;51.460;7.150;2023-02-01T18:44:08;7.10;99.90
2929;DHT22;1474;51.460;7.150;2023-02-01T18:46:37;6.90;99.90
2929;DHT22;1474;51.460;7.150;2023-02-01T18:49:03;6.40;99.90
2929;DHT22;1474;51.460;7.150;2023-02-01T18:51:28;6.00;99.90
2929;DHT22;1474;51.460;7.150;2023-02-01T18:53:54;5.70;99.90
2929;DHT22;1474;51.460;7.150;2023-02-01T18:56:20;5.30;99.90
2929;DHT22;1474;51.460;7.150;2023-02-01T18:58:45;5.10;99.90
2929;DHT22;1474;51.460;7.150;2023-02-01T19:01:19;5.00;99.90
2929;DHT22;1474;51.460;7.150;2023-02-01T19:03:46;4.90;99.90
2929;DHT22;1474;51.460;7.150;2023-02-01T19:06:12;4.90;99.90
2929;DHT22;1474;51.460;7.150;2023-02-01T19:08:38;4.90;99.90
2929;DHT22;1474;51.460;7.150;2023-02-01T19:11:05;4.90;99.90